sensor_id;sensor_type;location;lat;lon;timestamp;temperature;humidity
48768;DHT22;34933;40.968;14.538;2022-11-15T00:01:19;14.70;99.90
48768;DHT22;34933;40.968;14.538;2022-11-15T00:04:23;14.70;99.90
48768;DHT22;34933;40.968;14.538;2022-11-15T00:07:26;14.60;99.90
48768;DHT22;34933;40.968;14.538;2022-11-15T00:10:29;14.70;99.90
48768;DHT22;34933;40.968;14.538;2022-11-15T00:13:33;14.70;99.90
48768;DHT22;34933;40.968;14.538;2022-11-15T00:16:36;14.60;99.90
48768;DHT22;34933;40.968;14.538;2022-11-15T00:19:40;14.50;99.90
48768;DHT22;34933;40.968;14.538;2022-11-15T00:22:43;14.40;99.90
48768;DHT22;34933;40.968;14.538;2022-11-15T00:25:46;14.40;99.90
48768;DHT22;34933;40.968;14.538;2022-11-15T00:28:52;14.30;99.90
48768;DHT22;34933;40.968;14.538;2022-11-15T00:31:55;14.30;99.90
48768;DHT22;34933;40.968;14.538;2022-11-15T00:34:59;14.20;99.90
48768;DHT22;34933;40.968;14.538;2022-11-15T00:38:02;14.20;99.90
48768;DHT22;34933;40.968;14.538;2022-11-15T00:41:06;14.20;99.90
48768;DHT22;34933;40.968;14.538;2022-11-15T00:44:10;14.20;99.90
48768;DHT22;34933;40.968;14.538;2022-11-15T00:47:13;14.30;99.90
48768;DHT22;34933;40.968;14.538;2022-11-15T00:50:16;14.30;99.90
48768;DHT22;34933;40.968;14.538;2022-11-15T00:53:19;14.40;99.90
48768;DHT22;34933;40.968;14.538;2022-11-15T00:56:22;14.40;99.90
48768;DHT22;34933;40.968;14.538;2022-11-15T00:59:26;14.40;99.90
48768;DHT22;34933;40.968;14.538;2022-11-15T01:02:29;14.30;99.90
48768;DHT22;34933;40.968;14.538;2022-11-15T01:05:32;14.30;99.90
48768;DHT22;34933;40.968;14.538;2022-11-15T01:08:35;14.30;99.90
48768;DHT22;34933;40.968;14.538;2022-11-15T01:11:39;14.30;99.90
48768;DHT22;34933;40.968;14.538;2022-11-15T01:14:43;14.30;99.90
48768;DHT22;34933;40.968;14.538;2022-11-15T01:17:46;14.30;99.90
48768;DHT22;34933;40.968;14.538;2022-11-15T01:20:49;14.30;99.90
48768;DHT22;34933;40.968;14.538;2022-11-15T01:23:54;14.30;99.90
48768;DHT22;34933;40.968;14.538;2022-11-15T01:26:57;14.30;99.90
48768;DHT22;34933;40.968;14.538;2022-11-15T01:30:00;14.20;99.90
48768;DHT22;34933;40.968;14.538;2022-11-15T01:33:04;14.20;99.90
48768;DHT22;34933;40.968;14.538;2022-11-15T01:36:17;14.10;99.90
48768;DHT22;34933;40.968;14.538;2022-11-15T01:39:21;14.10;99.90
48768;DHT22;34933;40.968;14.538;2022-11-15T01:42:24;14.10;99.90
48768;DHT22;34933;40.968;14.538;2022-11-15T01:45:27;14.10;99.90
48768;DHT22;34933;40.968;14.538;2022-11-15T01:48:34;14.00;99.90
48768;DHT22;34933;40.968;14.538;2022-11-15T01:51:38;14.00;99.90
48768;DHT22;34933;40.968;14.538;2022-11-15T01:54:42;14.00;99.90
48768;DHT22;34933;40.968;14.538;2022-11-15T01:57:48;14.00;99.90
48768;DHT22;34933;40.968;14.538;2022-11-15T02:00:53;14.00;99.90
48768;DHT22;34933;40.968;14.538;2022-11-15T02:04:00;14.10;99.90
48768;DHT22;34933;40.968;14.538;2022-11-15T02:07:06;14.10;99.90
48768;DHT22;34933;40.968;14.538;2022-11-15T02:10:16;14.10;99.90
48768;DHT22;34933;40.968;14.538;2022-11-15T02:13:19;14.10;99.90
48768;DHT22;34933;40.968;14.538;2022-11-15T02:16:27;14.10;99.90
48768;DHT22;34933;40.968;14.538;2022-11-15T02:33:56;13.90;99.90
48768;DHT22;34933;40.968;14.538;2022-11-15T02:37:25;13.80;99.90
48768;DHT22;34933;40.968;14.538;2022-11-15T02:41:02;13.80;99.90
48768;DHT22;34933;40.968;14.538;2022-11-15T02:44:30;13.70;99.90
48768;DHT22;34933;40.968;14.538;2022-11-15T02:47:43;13.70;99.90
48768;DHT22;34933;40.968;14.538;2022-11-15T02:50:47;13.70;99.90
48768;DHT22;34933;40.968;14.538;2022-11-15T02:53:50;13.70;99.90
48768;DHT22;34933;40.968;14.538;2022-11-15T02:56:56;13.80;99.90
48768;DHT22;34933;40.968;14.538;2022-11-15T03:00:08;13.80;99.90
48768;DHT22;34933;40.968;14.538;2022-11-15T03:03:29;13.80;99.90
48768;DHT22;34933;40.968;14.538;2022-11-15T03:06:52;13.90;99.90
48768;DHT22;34933;40.968;14.538;2022-11-15T03:10:01;13.80;99.90
48768;DHT22;34933;40.968;14.538;2022-11-15T03:13:26;13.80;99.90
48768;DHT22;34933;40.968;14.538;2022-11-15T03:16:44;13.80;99.90
48768;DHT22;34933;40.968;14.538;2022-11-15T03:20:01;13.80;99.90
48768;DHT22;34933;40.968;14.538;2022-11-15T03:23:10;13.80;99.90
48768;DHT22;34933;40.968;14.538;2022-11-15T03:26:15;13.80;99.90
48768;DHT22;34933;40.968;14.538;2022-11-15T03:29:30;13.80;99.90
48768;DHT22;34933;40.968;14.538;2022-11-15T03:32:42;13.80;99.90
48768;DHT22;34933;40.968;14.538;2022-11-15T03:35:46;13.70;99.90
48768;DHT22;34933;40.968;14.538;2022-11-15T03:38:53;13.70;99.90
48768;DHT22;34933;40.968;14.538;2022-11-15T03:45:33;13.60;99.90
48768;DHT22;34933;40.968;14.538;2022-11-15T03:48:47;13.60;99.90
48768;DHT22;34933;40.968;14.538;2022-11-15T03:51:52;13.60;99.90
48768;DHT22;34933;40.968;14.538;2022-11-15T03:54:56;13.60;99.90
48768;DHT22;34933;40.968;14.538;2022-11-15T03:58:01;13.60;99.90
48768;DHT22;34933;40.968;14.538;2022-11-15T04:01:04;13.50;99.90
48768;DHT22;34933;40.968;14.538;2022-11-15T04:04:08;13.50;99.90
48768;DHT22;34933;40.968;14.538;2022-11-15T04:07:12;13.60;99.90
48768;DHT22;34933;40.968;14.538;2022-11-15T04:10:15;13.50;99.90
48768;DHT22;34933;40.968;14.538;2022-11-15T04:13:18;13.40;99.90
48768;DHT22;34933;40.968;14.538;2022-11-15T04:16:21;13.30;99.90
48768;DHT22;34933;40.968;14.538;2022-11-15T04:19:25;13.20;99.90
48768;DHT22;34933;40.968;14.538;2022-11-15T04:22:47;13.10;99.90
48768;DHT22;34933;40.968;14.538;2022-11-15T04:26:15;13.00;99.90
48768;DHT22;34933;40.968;14.538;2022-11-15T04:29:19;12.90;99.90
48768;DHT22;34933;40.968;14.538;2022-11-15T04:32:37;12.90;99.90
48768;DHT22;34933;40.968;14.538;2022-11-15T04:35:40;12.80;99.90
48768;DHT22;34933;40.968;14.538;2022-11-15T04:38:44;12.80;99.90
48768;DHT22;34933;40.968;14.538;2022-11-15T04:41:47;12.70;99.90
48768;DHT22;34933;40.968;14.538;2022-11-15T04:44:50;12.70;99.90
48768;DHT22;34933;40.968;14.538;2022-11-15T04:47:53;12.60;99.90
48768;DHT22;34933;40.968;14.538;2022-11-15T04:50:57;12.60;99.90
48768;DHT22;34933;40.968;14.538;2022-11-15T04:54:00;12.60;99.90
48768;DHT22;34933;40.968;14.538;2022-11-15T04:57:03;12.60;99.90
48768;DHT22;34933;40.968;14.538;2022-11-15T05:00:10;12.70;99.90
48768;DHT22;34933;40.968;14.538;2022-11-15T05:03:13;12.70;99.90
48768;DHT22;34933;40.968;14.538;2022-11-15T05:06:35;12.70;99.90
48768;DHT22;34933;40.968;14.538;2022-11-15T05:09:38;12.80;99.90
48768;DHT22;34933;40.968;14.538;2022-11-15T05:12:41;12.70;99.90
48768;DHT22;34933;40.968;14.538;2022-11-15T05:15:44;12.80;99.90
48768;DHT22;34933;40.968;14.538;2022-11-15T05:18:53;12.80;99.90
48768;DHT22;34933;40.968;14.538;2022-11-15T05:21:56;12.90;99.90
48768;DHT22;34933;40.968;14.538;2022-11-15T05:24:59;12.90;99.90
48768;DHT22;34933;40.968;14.538;2022-11-15T05:28:02;12.90;99.90
48768;DHT22;34933;40.968;14.538;2022-11-15T05:31:12;12.90;99.90
48768;DHT22;34933;40.968;14.538;2022-11-15T05:34:15;12.90;99.90
48768;DHT22;34933;40.968;14.538;2022-11-15T05:37:20;12.90;99.90
48768;DHT22;34933;40.968;14.538;2022-11-15T05:40:24;12.90;99.90
48768;DHT22;34933;40.968;14.538;2022-11-15T05:43:27;12.90;99.90
48768;DHT22;34933;40.968;14.538;2022-11-15T05:46:33;12.90;99.90
48768;DHT22;34933;40.968;14.538;2022-11-15T05:49:38;12.80;99.90
48768;DHT22;34933;40.968;14.538;2022-11-15T05:52:43;12.80;99.90
48768;DHT22;34933;40.968;14.538;2022-11-15T05:55:47;12.70;99.90
48768;DHT22;34933;40.968;14.538;2022-11-15T05:58:53;12.70;99.90
48768;DHT22;34933;40.968;14.538;2022-11-15T06:01:57;12.60;99.90
48768;DHT22;34933;40.968;14.538;2022-11-15T06:05:01;12.60;99.90
48768;DHT22;34933;40.968;14.538;2022-11-15T06:08:04;12.60;99.90
48768;DHT22;34933;40.968;14.538;2022-11-15T06:11:08;12.60;99.90
48768;DHT22;34933;40.968;14.538;2022-11-15T06:14:11;12.60;99.90
48768;DHT22;34933;40.968;14.538;2022-11-15T06:17:14;12.60;99.90
48768;DHT22;34933;40.968;14.538;2022-11-15T06:20:18;12.60;99.90
48768;DHT22;34933;40.968;14.538;2022-11-15T06:23:21;12.70;99.90
48768;DHT22;34933;40.968;14.538;2022-11-15T06:26:24;12.80;99.90
48768;DHT22;34933;40.968;14.538;2022-11-15T06:29:27;12.80;99.90
48768;DHT22;34933;40.968;14.538;2022-11-15T06:32:31;12.80;99.90
48768;DHT22;34933;40.968;14.538;2022-11-15T06:35:35;12.90;99.90
48768;DHT22;34933;40.968;14.538;2022-11-15T06:38:39;12.90;99.90
48768;DHT22;34933;40.968;14.538;2022-11-15T06:41:42;13.00;99.90
48768;DHT22;34933;40.968;14.538;2022-11-15T06:44:45;13.00;99.90
48768;DHT22;34933;40.968;14.538;2022-11-15T06:47:48;13.10;99.90
48768;DHT22;34933;40.968;14.538;2022-11-15T06:50:55;13.10;99.90
48768;DHT22;34933;40.968;14.538;2022-11-15T06:53:59;13.10;99.90
48768;DHT22;34933;40.968;14.538;2022-11-15T06:57:04;13.20;99.90
48768;DHT22;34933;40.968;14.538;2022-11-15T07:00:09;13.30;99.90
48768;DHT22;34933;40.968;14.538;2022-11-15T07:03:12;13.50;99.90
48768;DHT22;34933;40.968;14.538;2022-11-15T07:06:15;13.70;99.90
48768;DHT22;34933;40.968;14.538;2022-11-15T07:09:18;13.90;99.90
48768;DHT22;34933;40.968;14.538;2022-11-15T07:12:21;14.00;99.90
48768;DHT22;34933;40.968;14.538;2022-11-15T07:15:25;14.20;99.90
48768;DHT22;34933;40.968;14.538;2022-11-15T07:18:29;14.50;99.90
48768;DHT22;34933;40.968;14.538;2022-11-15T07:21:32;14.70;99.90
48768;DHT22;34933;40.968;14.538;2022-11-15T07:24:36;14.90;99.90
48768;DHT22;34933;40.968;14.538;2022-11-15T07:27:38;15.10;99.90
48768;DHT22;34933;40.968;14.538;2022-11-15T07:30:42;15.30;99.90
48768;DHT22;34933;40.968;14.538;2022-11-15T07:33:45;15.50;99.90
48768;DHT22;34933;40.968;14.538;2022-11-15T07:36:48;15.60;99.90
48768;DHT22;34933;40.968;14.538;2022-11-15T07:39:51;15.60;99.90
48768;DHT22;34933;40.968;14.538;2022-11-15T07:43:01;15.70;99.90
48768;DHT22;34933;40.968;14.538;2022-11-15T07:46:08;15.70;99.90
48768;DHT22;34933;40.968;14.538;2022-11-15T07:49:12;15.80;99.90
48768;DHT22;34933;40.968;14.538;2022-11-15T07:52:15;15.90;99.90
48768;DHT22;34933;40.968;14.538;2022-11-15T07:55:18;16.00;99.90
48768;DHT22;34933;40.968;14.538;2022-11-15T07:58:21;16.10;99.90
48768;DHT22;34933;40.968;14.538;2022-11-15T08:01:24;16.30;99.90
48768;DHT22;34933;40.968;14.538;2022-11-15T08:04:28;16.40;99.90
48768;DHT22;34933;40.968;14.538;2022-11-15T08:07:31;16.50;99.90
48768;DHT22;34933;40.968;14.538;2022-11-15T08:10:35;16.70;99.90
48768;DHT22;34933;40.968;14.538;2022-11-15T08:13:38;16.80;99.90
48768;DHT22;34933;40.968;14.538;2022-11-15T08:16:41;16.80;99.90
48768;DHT22;34933;40.968;14.538;2022-11-15T08:19:44;16.80;99.90
48768;DHT22;34933;40.968;14.538;2022-11-15T08:22:48;16.90;99.90
48768;DHT22;34933;40.968;14.538;2022-11-15T08:25:51;16.90;99.90
48768;DHT22;34933;40.968;14.538;2022-11-15T08:28:55;17.00;99.90
48768;DHT22;34933;40.968;14.538;2022-11-15T08:31:58;17.20;99.90
48768;DHT22;34933;40.968;14.538;2022-11-15T08:35:01;17.30;99.90
48768;DHT22;34933;40.968;14.538;2022-11-15T08:38:05;17.40;99.90
48768;DHT22;34933;40.968;14.538;2022-11-15T08:41:16;17.50;99.90
48768;DHT22;34933;40.968;14.538;2022-11-15T08:44:20;17.60;99.90
48768;DHT22;34933;40.968;14.538;2022-11-15T08:47:24;17.70;99.90
48768;DHT22;34933;40.968;14.538;2022-11-15T08:50:27;17.80;99.90
48768;DHT22;34933;40.968;14.538;2022-11-15T08:53:31;17.90;99.90
48768;DHT22;34933;40.968;14.538;2022-11-15T08:56:34;17.90;99.90
48768;DHT22;34933;40.968;14.538;2022-11-15T08:59:38;18.00;99.90
48768;DHT22;34933;40.968;14.538;2022-11-15T09:02:41;18.10;99.90
48768;DHT22;34933;40.968;14.538;2022-11-15T09:05:44;18.10;99.90
48768;DHT22;34933;40.968;14.538;2022-11-15T09:08:47;18.10;99.90
48768;DHT22;34933;40.968;14.538;2022-11-15T09:11:51;18.20;99.90
48768;DHT22;34933;40.968;14.538;2022-11-15T09:14:54;18.30;99.90
48768;DHT22;34933;40.968;14.538;2022-11-15T09:18:00;18.30;99.90
48768;DHT22;34933;40.968;14.538;2022-11-15T09:21:04;18.30;99.90
48768;DHT22;34933;40.968;14.538;2022-11-15T09:24:07;18.40;99.90
48768;DHT22;34933;40.968;14.538;2022-11-15T09:27:11;18.40;99.90
48768;DHT22;34933;40.968;14.538;2022-11-15T09:30:15;18.50;99.90
48768;DHT22;34933;40.968;14.538;2022-11-15T09:33:18;18.60;99.90
48768;DHT22;34933;40.968;14.538;2022-11-15T09:36:22;18.60;99.90
48768;DHT22;34933;40.968;14.538;2022-11-15T09:39:25;18.60;99.90
48768;DHT22;34933;40.968;14.538;2022-11-15T09:42:44;18.70;99.90
48768;DHT22;34933;40.968;14.538;2022-11-15T09:46:02;18.80;99.90
48768;DHT22;34933;40.968;14.538;2022-11-15T09:49:08;18.80;99.90
48768;DHT22;34933;40.968;14.538;2022-11-15T09:52:10;18.90;99.90
48768;DHT22;34933;40.968;14.538;2022-11-15T09:54:55;18.90;99.90
48768;DHT22;34933;40.968;14.538;2022-11-15T09:58:00;18.90;99.90
48768;DHT22;34933;40.968;14.538;2022-11-15T10:00:48;19.10;99.90
48768;DHT22;34933;40.968;14.538;2022-11-15T10:03:38;19.20;99.90
48768;DHT22;34933;40.968;14.538;2022-11-15T10:06:26;19.30;99.90
48768;DHT22;34933;40.968;14.538;2022-11-15T10:09:29;19.40;99.90
48768;DHT22;34933;40.968;14.538;2022-11-15T10:12:18;19.60;99.90
48768;DHT22;34933;40.968;14.538;2022-11-15T10:15:11;19.60;99.90
48768;DHT22;34933;40.968;14.538;2022-11-15T10:18:24;19.60;99.90
48768;DHT22;34933;40.968;14.538;2022-11-15T10:21:17;19.60;99.90
48768;DHT22;34933;40.968;14.538;2022-11-15T10:24:10;19.70;99.90
48768;DHT22;34933;40.968;14.538;2022-11-15T10:26:56;19.90;99.90
48768;DHT22;34933;40.968;14.538;2022-11-15T10:29:46;20.00;99.90
48768;DHT22;34933;40.968;14.538;2022-11-15T10:32:33;20.30;99.90
48768;DHT22;34933;40.968;14.538;2022-11-15T10:35:27;20.50;99.90
48768;DHT22;34933;40.968;14.538;2022-11-15T10:38:12;20.50;99.90
48768;DHT22;34933;40.968;14.538;2022-11-15T10:41:07;20.70;99.90
48768;DHT22;34933;40.968;14.538;2022-11-15T10:44:03;20.80;99.90
48768;DHT22;34933;40.968;14.538;2022-11-15T10:49:56;21.10;99.90
48768;DHT22;34933;40.968;14.538;2022-11-15T10:52:45;21.00;99.90
48768;DHT22;34933;40.968;14.538;2022-11-15T10:55:33;20.80;99.90
48768;DHT22;34933;40.968;14.538;2022-11-15T10:58:43;20.50;99.90
48768;DHT22;34933;40.968;14.538;2022-11-15T11:01:28;20.50;99.90
48768;DHT22;34933;40.968;14.538;2022-11-15T11:04:16;20.70;99.90
48768;DHT22;34933;40.968;14.538;2022-11-15T11:07:01;20.90;99.90
48768;DHT22;34933;40.968;14.538;2022-11-15T11:09:57;21.10;99.90
48768;DHT22;34933;40.968;14.538;2022-11-15T11:12:41;20.90;99.90
48768;DHT22;34933;40.968;14.538;2022-11-15T11:15:27;20.90;99.90
48768;DHT22;34933;40.968;14.538;2022-11-15T11:18:25;21.30;99.90
48768;DHT22;34933;40.968;14.538;2022-11-15T11:21:23;21.20;99.90
48768;DHT22;34933;40.968;14.538;2022-11-15T11:30:21;20.60;99.90
48768;DHT22;34933;40.968;14.538;2022-11-15T11:39:00;20.00;99.90
48768;DHT22;34933;40.968;14.538;2022-11-15T11:47:41;19.90;99.90
48768;DHT22;34933;40.968;14.538;2022-11-15T11:50:28;19.90;99.90
48768;DHT22;34933;40.968;14.538;2022-11-15T11:53:19;19.90;99.90
48768;DHT22;34933;40.968;14.538;2022-11-15T11:56:35;20.10;99.90
48768;DHT22;34933;40.968;14.538;2022-11-15T11:59:59;20.40;99.90
48768;DHT22;34933;40.968;14.538;2022-11-15T12:05:44;20.10;99.90
48768;DHT22;34933;40.968;14.538;2022-11-15T12:15:02;20.70;99.90
48768;DHT22;34933;40.968;14.538;2022-11-15T12:17:48;21.00;99.90
48768;DHT22;34933;40.968;14.538;2022-11-15T12:20:40;21.30;99.90
48768;DHT22;34933;40.968;14.538;2022-11-15T12:23:37;21.50;99.90
48768;DHT22;34933;40.968;14.538;2022-11-15T12:26:31;21.80;99.90
48768;DHT22;34933;40.968;14.538;2022-11-15T12:29:29;21.70;99.90
48768;DHT22;34933;40.968;14.538;2022-11-15T12:32:28;21.60;99.90
48768;DHT22;34933;40.968;14.538;2022-11-15T12:35:36;21.50;99.90
48768;DHT22;34933;40.968;14.538;2022-11-15T12:41:33;21.20;99.90
48768;DHT22;34933;40.968;14.538;2022-11-15T12:47:24;20.80;99.90
48768;DHT22;34933;40.968;14.538;2022-11-15T12:50:12;21.00;99.90
48768;DHT22;34933;40.968;14.538;2022-11-15T12:58:57;20.70;99.90
48768;DHT22;34933;40.968;14.538;2022-11-15T13:01:56;20.40;99.90
48768;DHT22;34933;40.968;14.538;2022-11-15T13:04:41;20.30;99.90
48768;DHT22;34933;40.968;14.538;2022-11-15T13:13:08;20.50;99.90
48768;DHT22;34933;40.968;14.538;2022-11-15T13:15:56;20.40;99.90
48768;DHT22;34933;40.968;14.538;2022-11-15T13:18:40;20.60;99.90
48768;DHT22;34933;40.968;14.538;2022-11-15T13:21:25;20.40;99.90
48768;DHT22;34933;40.968;14.538;2022-11-15T13:24:28;20.60;99.90
48768;DHT22;34933;40.968;14.538;2022-11-15T13:27:18;20.50;99.90
48768;DHT22;34933;40.968;14.538;2022-11-15T13:30:04;20.40;99.90
48768;DHT22;34933;40.968;14.538;2022-11-15T13:32:49;20.50;99.90
48768;DHT22;34933;40.968;14.538;2022-11-15T13:35:39;20.30;99.90
48768;DHT22;34933;40.968;14.538;2022-11-15T13:41:31;19.90;99.90
48768;DHT22;34933;40.968;14.538;2022-11-15T13:44:29;20.10;99.90
48768;DHT22;34933;40.968;14.538;2022-11-15T13:47:16;20.30;99.90
48768;DHT22;34933;40.968;14.538;2022-11-15T13:50:03;20.40;99.90
48768;DHT22;34933;40.968;14.538;2022-11-15T13:52:48;20.40;99.90
48768;DHT22;34933;40.968;14.538;2022-11-15T13:55:33;20.60;99.90
48768;DHT22;34933;40.968;14.538;2022-11-15T13:58:18;20.30;99.90
48768;DHT22;34933;40.968;14.538;2022-11-15T14:01:04;20.20;99.90
48768;DHT22;34933;40.968;14.538;2022-11-15T14:03:56;20.20;99.90
48768;DHT22;34933;40.968;14.538;2022-11-15T14:06:48;20.60;99.90
48768;DHT22;34933;40.968;14.538;2022-11-15T14:09:38;21.00;99.90
48768;DHT22;34933;40.968;14.538;2022-11-15T14:12:29;21.30;99.90
48768;DHT22;34933;40.968;14.538;2022-11-15T14:15:35;21.40;99.90
48768;DHT22;34933;40.968;14.538;2022-11-15T14:18:40;21.30;99.90
48768;DHT22;34933;40.968;14.538;2022-11-15T14:21:26;21.10;99.90
48768;DHT22;34933;40.968;14.538;2022-11-15T14:24:19;21.10;99.90
48768;DHT22;34933;40.968;14.538;2022-11-15T14:27:25;20.90;99.90
48768;DHT22;34933;40.968;14.538;2022-11-15T14:30:15;20.60;99.90
48768;DHT22;34933;40.968;14.538;2022-11-15T14:33:00;20.40;99.90
48768;DHT22;34933;40.968;14.538;2022-11-15T14:35:44;20.30;99.90
48768;DHT22;34933;40.968;14.538;2022-11-15T14:38:29;19.90;99.90
48768;DHT22;34933;40.968;14.538;2022-11-15T14:41:22;19.70;99.90
48768;DHT22;34933;40.968;14.538;2022-11-15T14:44:11;19.50;99.90
48768;DHT22;34933;40.968;14.538;2022-11-15T14:46:56;19.40;99.90
48768;DHT22;34933;40.968;14.538;2022-11-15T14:49:41;19.30;99.90
48768;DHT22;34933;40.968;14.538;2022-11-15T14:52:28;19.20;99.90
48768;DHT22;34933;40.968;14.538;2022-11-15T14:58:06;18.90;99.90
48768;DHT22;34933;40.968;14.538;2022-11-15T15:00:51;18.80;99.90
48768;DHT22;34933;40.968;14.538;2022-11-15T15:03:36;18.60;99.90
48768;DHT22;34933;40.968;14.538;2022-11-15T15:06:21;18.60;99.90
48768;DHT22;34933;40.968;14.538;2022-11-15T15:09:05;18.50;99.90
48768;DHT22;34933;40.968;14.538;2022-11-15T15:11:50;18.40;99.90
48768;DHT22;34933;40.968;14.538;2022-11-15T15:14:35;18.30;99.90
48768;DHT22;34933;40.968;14.538;2022-11-15T15:17:20;18.10;99.90
48768;DHT22;34933;40.968;14.538;2022-11-15T15:20:05;18.00;99.90
48768;DHT22;34933;40.968;14.538;2022-11-15T15:22:50;17.90;99.90
48768;DHT22;34933;40.968;14.538;2022-11-15T15:25:35;17.80;99.90
48768;DHT22;34933;40.968;14.538;2022-11-15T15:28:19;17.70;99.90
48768;DHT22;34933;40.968;14.538;2022-11-15T15:31:04;17.70;99.90
48768;DHT22;34933;40.968;14.538;2022-11-15T15:33:49;17.60;99.90
48768;DHT22;34933;40.968;14.538;2022-11-15T15:36:34;17.50;99.90
48768;DHT22;34933;40.968;14.538;2022-11-15T15:39:18;17.40;99.90
48768;DHT22;34933;40.968;14.538;2022-11-15T15:42:03;17.20;99.90
48768;DHT22;34933;40.968;14.538;2022-11-15T15:44:51;17.10;99.90
48768;DHT22;34933;40.968;14.538;2022-11-15T15:47:35;16.90;99.90
48768;DHT22;34933;40.968;14.538;2022-11-15T15:50:23;16.80;99.90
48768;DHT22;34933;40.968;14.538;2022-11-15T15:53:09;16.70;99.90
48768;DHT22;34933;40.968;14.538;2022-11-15T15:55:57;16.60;99.90
48768;DHT22;34933;40.968;14.538;2022-11-15T15:58:42;16.50;99.90
48768;DHT22;34933;40.968;14.538;2022-11-15T16:01:27;16.40;99.90
48768;DHT22;34933;40.968;14.538;2022-11-15T16:04:11;16.30;99.90
48768;DHT22;34933;40.968;14.538;2022-11-15T16:07:00;16.20;99.90
48768;DHT22;34933;40.968;14.538;2022-11-15T16:09:45;16.20;99.90
48768;DHT22;34933;40.968;14.538;2022-11-15T16:12:44;16.10;99.90
48768;DHT22;34933;40.968;14.538;2022-11-15T16:15:30;16.00;99.90
48768;DHT22;34933;40.968;14.538;2022-11-15T16:18:16;15.90;99.90
48768;DHT22;34933;40.968;14.538;2022-11-15T16:21:01;15.80;99.90
48768;DHT22;34933;40.968;14.538;2022-11-15T16:23:46;15.70;99.90
48768;DHT22;34933;40.968;14.538;2022-11-15T16:26:30;15.60;99.90
48768;DHT22;34933;40.968;14.538;2022-11-15T16:29:17;15.50;99.90
48768;DHT22;34933;40.968;14.538;2022-11-15T16:32:01;15.40;99.90
48768;DHT22;34933;40.968;14.538;2022-11-15T16:34:46;15.40;99.90
48768;DHT22;34933;40.968;14.538;2022-11-15T16:37:30;15.30;99.90
48768;DHT22;34933;40.968;14.538;2022-11-15T16:43:00;15.30;99.90
48768;DHT22;34933;40.968;14.538;2022-11-15T16:45:46;15.30;99.90
48768;DHT22;34933;40.968;14.538;2022-11-15T16:48:30;15.30;99.90
48768;DHT22;34933;40.968;14.538;2022-11-15T16:51:15;15.20;99.90
48768;DHT22;34933;40.968;14.538;2022-11-15T16:54:00;15.10;99.90
48768;DHT22;34933;40.968;14.538;2022-11-15T16:56:44;15.10;99.90
48768;DHT22;34933;40.968;14.538;2022-11-15T16:59:29;15.00;99.90
48768;DHT22;34933;40.968;14.538;2022-11-15T17:02:16;15.00;99.90
48768;DHT22;34933;40.968;14.538;2022-11-15T17:05:01;14.90;99.90
48768;DHT22;34933;40.968;14.538;2022-11-15T17:07:47;14.90;99.90
48768;DHT22;34933;40.968;14.538;2022-11-15T17:10:33;14.90;99.90
48768;DHT22;34933;40.968;14.538;2022-11-15T17:13:18;14.90;99.90
48768;DHT22;34933;40.968;14.538;2022-11-15T17:16:04;14.90;99.90
48768;DHT22;34933;40.968;14.538;2022-11-15T17:18:50;15.00;99.90
48768;DHT22;34933;40.968;14.538;2022-11-15T17:21:35;15.00;99.90
48768;DHT22;34933;40.968;14.538;2022-11-15T17:24:19;15.00;99.90
48768;DHT22;34933;40.968;14.538;2022-11-15T17:27:04;14.90;99.90
48768;DHT22;34933;40.968;14.538;2022-11-15T17:29:48;14.90;99.90
48768;DHT22;34933;40.968;14.538;2022-11-15T17:32:36;14.90;99.90
48768;DHT22;34933;40.968;14.538;2022-11-15T17:35:21;14.90;99.90
48768;DHT22;34933;40.968;14.538;2022-11-15T17:38:05;14.80;99.90
48768;DHT22;34933;40.968;14.538;2022-11-15T17:41:13;14.80;99.90
48768;DHT22;34933;40.968;14.538;2022-11-15T17:43:59;14.80;99.90
48768;DHT22;34933;40.968;14.538;2022-11-15T17:46:45;14.80;99.90
48768;DHT22;34933;40.968;14.538;2022-11-15T17:49:29;14.80;99.90
48768;DHT22;34933;40.968;14.538;2022-11-15T17:52:14;14.80;99.90
48768;DHT22;34933;40.968;14.538;2022-11-15T17:54:58;14.80;99.90
48768;DHT22;34933;40.968;14.538;2022-11-15T17:57:43;14.80;99.90
48768;DHT22;34933;40.968;14.538;2022-11-15T18:00:27;14.80;99.90
48768;DHT22;34933;40.968;14.538;2022-11-15T18:03:13;14.80;99.90
48768;DHT22;34933;40.968;14.538;2022-11-15T18:05:57;14.80;99.90
48768;DHT22;34933;40.968;14.538;2022-11-15T18:08:44;14.80;99.90
48768;DHT22;34933;40.968;14.538;2022-11-15T18:11:31;14.80;99.90
48768;DHT22;34933;40.968;14.538;2022-11-15T18:14:16;14.90;99.90
48768;DHT22;34933;40.968;14.538;2022-11-15T18:17:02;14.90;99.90
48768;DHT22;34933;40.968;14.538;2022-11-15T18:19:46;14.90;99.90
48768;DHT22;34933;40.968;14.538;2022-11-15T18:22:31;14.90;99.90
48768;DHT22;34933;40.968;14.538;2022-11-15T18:25:16;14.90;99.90
48768;DHT22;34933;40.968;14.538;2022-11-15T18:28:00;14.90;99.90
48768;DHT22;34933;40.968;14.538;2022-11-15T18:30:45;14.80;99.90
48768;DHT22;34933;40.968;14.538;2022-11-15T18:33:33;14.80;99.90
48768;DHT22;34933;40.968;14.538;2022-11-15T18:36:20;14.80;99.90
48768;DHT22;34933;40.968;14.538;2022-11-15T18:39:05;14.70;99.90
48768;DHT22;34933;40.968;14.538;2022-11-15T18:41:50;14.60;99.90
48768;DHT22;34933;40.968;14.538;2022-11-15T18:44:35;14.50;99.90
48768;DHT22;34933;40.968;14.538;2022-11-15T18:47:20;14.40;99.90
48768;DHT22;34933;40.968;14.538;2022-11-15T18:50:05;14.40;99.90
48768;DHT22;34933;40.968;14.538;2022-11-15T18:52:49;14.30;99.90
48768;DHT22;34933;40.968;14.538;2022-11-15T18:55:34;14.20;99.90
48768;DHT22;34933;40.968;14.538;2022-11-15T18:58:19;14.20;99.90
48768;DHT22;34933;40.968;14.538;2022-11-15T19:01:09;14.10;99.90
48768;DHT22;34933;40.968;14.538;2022-11-15T19:03:55;14.10;99.90
48768;DHT22;34933;40.968;14.538;2022-11-15T19:06:42;14.00;99.90
48768;DHT22;34933;40.968;14.538;2022-11-15T19:09:27;14.00;99.90
48768;DHT22;34933;40.968;14.538;2022-11-15T19:12:15;14.00;99.90
48768;DHT22;34933;40.968;14.538;2022-11-15T19:15:00;14.00;99.90
48768;DHT22;34933;40.968;14.538;2022-11-15T19:17:45;14.10;99.90
48768;DHT22;34933;40.968;14.538;2022-11-15T19:20:29;14.00;99.90
48768;DHT22;34933;40.968;14.538;2022-11-15T19:26:01;14.00;99.90
48768;DHT22;34933;40.968;14.538;2022-11-15T19:28:50;14.00;99.90
48768;DHT22;34933;40.968;14.538;2022-11-15T19:31:35;14.10;99.90
48768;DHT22;34933;40.968;14.538;2022-11-15T19:34:20;14.10;99.90
48768;DHT22;34933;40.968;14.538;2022-11-15T19:37:05;14.10;99.90